EDW22 MKJS-LSZH
Flight info
| Callsign | EDW22 |
|---|---|
| Flight time | N/A |
| Altitude | 35000 |
| Route | ELUTU5 TILUP DCT ULDAR UM331 GHANN DCT FORST DCT ROSEA DCT PAARR DCT SMTTY DCT AVNEY DCT RENAH DCT CANEE/M085F350 DCT RUDLI DCT BALTN DCT SOORY DCT 43N050W 46N040W 49N030W 50N020W DCT SOMAX DCT ATSUR DCT RATKA/N0489F350 DCT LARLA DCT GANTO DCT JSY DCT TURDU DCT TADUP DCT TEPRI DCT POGZI DCT GELTA DCT MANAG DCT PEVIT DCT BLM |
| Aircraft | A359/H-SABDE2E3GHIJ2J3J4J5M1P2RWXYZ/LB1D1 |
Departure
| Time | N/A |
|---|---|
| Airport | Sangster International Airport (MKJS) |
Arrival
| Time | 2026-05-07 23:05 |
|---|---|
| Airport | Zürich Airport (LSZH) |
| Time | Latitude | Longitude | Altitude | Speed | Heading |
|---|---|---|---|---|---|
| 2026-05-07 22:31 | 48.51141 | 3.86632 | 35031 ft | 504 kts | 96° |
| 2026-05-07 22:31 | 48.50797 | 3.91825 | 35033 ft | 503 kts | 99° |
| 2026-05-07 22:32 | 48.49393 | 4.02087 | 35029 ft | 502 kts | 108° |
| 2026-05-07 22:32 | 48.47034 | 4.11961 | 35028 ft | 499 kts | 116° |
| 2026-05-07 22:33 | 48.43935 | 4.21254 | 35027 ft | 498 kts | 120° |
| 2026-05-07 22:33 | 48.40752 | 4.30487 | 35018 ft | 500 kts | 115° |
| 2026-05-07 22:34 | 48.38391 | 4.40310 | 35028 ft | 502 kts | 110° |
| 2026-05-07 22:34 | 48.36168 | 4.50230 | 35028 ft | 502 kts | 110° |
| 2026-05-07 22:35 | 48.33904 | 4.60121 | 35030 ft | 502 kts | 110° |
| 2026-05-07 22:35 | 48.31618 | 4.69964 | 35025 ft | 503 kts | 111° |
| 2026-05-07 22:36 | 48.29315 | 4.79816 | 35026 ft | 503 kts | 111° |
| 2026-05-07 22:36 | 48.26989 | 4.89693 | 35025 ft | 503 kts | 111° |
| 2026-05-07 22:37 | 48.24643 | 4.99596 | 35027 ft | 503 kts | 111° |
| 2026-05-07 22:37 | 48.22303 | 5.09424 | 34728 ft | 502 kts | 111° |
| 2026-05-07 22:37 | 48.21120 | 5.14382 | 34475 ft | 500 kts | 111° |
| 2026-05-07 22:38 | 48.19952 | 5.19259 | 34226 ft | 497 kts | 111° |
| 2026-05-07 22:38 | 48.18792 | 5.24094 | 33979 ft | 495 kts | 111° |
| 2026-05-07 22:38 | 48.17636 | 5.28900 | 33726 ft | 494 kts | 111° |
| 2026-05-07 22:38 | 48.16480 | 5.33697 | 33478 ft | 493 kts | 111° |
| 2026-05-07 22:39 | 48.15312 | 5.38532 | 33226 ft | 493 kts | 111° |
| 2026-05-07 22:39 | 48.14156 | 5.43305 | 32979 ft | 494 kts | 111° |
| 2026-05-07 22:39 | 48.12981 | 5.48145 | 32728 ft | 494 kts | 111° |
| 2026-05-07 22:39 | 48.11815 | 5.52942 | 32473 ft | 494 kts | 111° |
| 2026-05-07 22:40 | 48.10645 | 5.57742 | 32224 ft | 494 kts | 111° |
| 2026-05-07 22:40 | 48.09472 | 5.62551 | 31975 ft | 494 kts | 111° |
| 2026-05-07 22:40 | 48.08282 | 5.67417 | 31723 ft | 494 kts | 112° |
| 2026-05-07 22:40 | 48.07112 | 5.72206 | 31474 ft | 495 kts | 111° |
| 2026-05-07 22:41 | 48.05932 | 5.77022 | 31218 ft | 494 kts | 112° |
| 2026-05-07 22:41 | 48.04755 | 5.81813 | 30971 ft | 495 kts | 111° |
| 2026-05-07 22:41 | 48.03563 | 5.86649 | 30715 ft | 494 kts | 111° |
| 2026-05-07 22:41 | 48.02384 | 5.91419 | 30455 ft | 494 kts | 111° |
| 2026-05-07 22:42 | 48.01194 | 5.96223 | 30188 ft | 495 kts | 111° |
| 2026-05-07 22:42 | 47.99997 | 6.01043 | 29918 ft | 496 kts | 111° |
| 2026-05-07 22:42 | 47.98804 | 6.05836 | 29443 ft | 498 kts | 111° |
| 2026-05-07 22:42 | 47.97598 | 6.10670 | 28751 ft | 500 kts | 111° |
| 2026-05-07 22:43 | 47.96382 | 6.15532 | 27954 ft | 501 kts | 111° |
| 2026-05-07 22:43 | 47.95178 | 6.20339 | 27222 ft | 498 kts | 111° |
| 2026-05-07 22:43 | 47.93975 | 6.25131 | 26720 ft | 491 kts | 111° |
| 2026-05-07 22:43 | 47.92778 | 6.29893 | 26200 ft | 486 kts | 111° |
| 2026-05-07 22:44 | 47.91606 | 6.34541 | 25602 ft | 483 kts | 111° |
| 2026-05-07 22:44 | 47.90431 | 6.39189 | 25049 ft | 478 kts | 111° |
| 2026-05-07 22:44 | 47.89261 | 6.43791 | 24530 ft | 472 kts | 111° |
| 2026-05-07 22:44 | 47.88100 | 6.48303 | 24026 ft | 467 kts | 111° |
| 2026-05-07 22:45 | 47.86946 | 6.52785 | 23515 ft | 462 kts | 111° |
| 2026-05-07 22:45 | 47.85811 | 6.57207 | 23002 ft | 458 kts | 111° |
| 2026-05-07 22:45 | 47.84682 | 6.61611 | 22506 ft | 454 kts | 111° |
| 2026-05-07 22:45 | 47.83571 | 6.65947 | 22003 ft | 449 kts | 112° |
| 2026-05-07 22:46 | 47.82470 | 6.70256 | 21502 ft | 445 kts | 112° |
| 2026-05-07 22:46 | 47.81381 | 6.74514 | 20997 ft | 441 kts | 112° |
| 2026-05-07 22:46 | 47.80304 | 6.78709 | 20510 ft | 436 kts | 112° |
| 2026-05-07 22:46 | 47.79217 | 6.82938 | 20014 ft | 433 kts | 112° |
| 2026-05-07 22:47 | 47.78155 | 6.87056 | 19529 ft | 429 kts | 112° |
| 2026-05-07 22:47 | 47.77089 | 6.91176 | 19052 ft | 425 kts | 112° |
| 2026-05-07 22:47 | 47.76034 | 6.95253 | 18567 ft | 422 kts | 111° |
| 2026-05-07 22:47 | 47.74988 | 6.99287 | 18088 ft | 419 kts | 112° |
| 2026-05-07 22:48 | 47.73945 | 7.03300 | 17617 ft | 416 kts | 112° |
| 2026-05-07 22:48 | 47.72913 | 7.07264 | 17149 ft | 413 kts | 112° |
| 2026-05-07 22:48 | 47.71886 | 7.11201 | 16681 ft | 410 kts | 112° |
| 2026-05-07 22:48 | 47.70861 | 7.15119 | 16222 ft | 407 kts | 112° |
| 2026-05-07 22:49 | 47.69854 | 7.19054 | 15751 ft | 404 kts | 110° |
| 2026-05-07 22:49 | 47.68990 | 7.22972 | 15291 ft | 402 kts | 108° |
| 2026-05-07 22:49 | 47.68164 | 7.26894 | 14825 ft | 400 kts | 108° |
| 2026-05-07 22:49 | 47.67343 | 7.30804 | 14348 ft | 397 kts | 108° |
| 2026-05-07 22:50 | 47.66528 | 7.34676 | 13886 ft | 395 kts | 108° |
| 2026-05-07 22:50 | 47.65706 | 7.38559 | 13415 ft | 392 kts | 108° |
| 2026-05-07 22:50 | 47.64894 | 7.42381 | 12961 ft | 389 kts | 108° |
| 2026-05-07 22:50 | 47.64089 | 7.46165 | 12616 ft | 381 kts | 108° |
| 2026-05-07 22:51 | 47.63305 | 7.49845 | 12447 ft | 369 kts | 108° |
| 2026-05-07 22:51 | 47.62505 | 7.53397 | 12280 ft | 357 kts | 109° |
| 2026-05-07 22:51 | 47.61702 | 7.56819 | 12132 ft | 345 kts | 110° |
| 2026-05-07 22:51 | 47.60932 | 7.60073 | 12001 ft | 334 kts | 110° |
| 2026-05-07 22:52 | 47.60181 | 7.63250 | 11972 ft | 320 kts | 110° |
| 2026-05-07 22:52 | 47.59460 | 7.66313 | 11970 ft | 306 kts | 111° |
| 2026-05-07 22:52 | 47.58785 | 7.69198 | 11966 ft | 292 kts | 111° |
| 2026-05-07 22:52 | 47.58134 | 7.71975 | 11964 ft | 278 kts | 111° |
| 2026-05-07 22:53 | 47.57513 | 7.74619 | 11943 ft | 266 kts | 111° |
| 2026-05-07 22:53 | 47.56914 | 7.77171 | 11738 ft | 261 kts | 111° |
| 2026-05-07 22:53 | 47.56321 | 7.79682 | 11520 ft | 258 kts | 111° |
| 2026-05-07 22:53 | 47.55736 | 7.82163 | 11302 ft | 254 kts | 111° |
| 2026-05-07 22:54 | 47.55161 | 7.84594 | 11086 ft | 251 kts | 111° |
| 2026-05-07 22:54 | 47.54587 | 7.87023 | 10864 ft | 248 kts | 111° |
| 2026-05-07 22:54 | 47.54020 | 7.89413 | 10654 ft | 244 kts | 111° |
| 2026-05-07 22:54 | 47.53468 | 7.91743 | 10444 ft | 241 kts | 111° |
| 2026-05-07 22:55 | 47.52914 | 7.94075 | 10229 ft | 238 kts | 111° |
| 2026-05-07 22:55 | 47.52370 | 7.96364 | 10019 ft | 234 kts | 111° |
| 2026-05-07 22:55 | 47.51838 | 7.98598 | 9810 ft | 231 kts | 111° |
| 2026-05-07 22:55 | 47.51306 | 8.00833 | 9582 ft | 229 kts | 111° |
| 2026-05-07 22:56 | 47.50850 | 8.03090 | 9323 ft | 229 kts | 97° |
| 2026-05-07 22:56 | 47.50932 | 8.05387 | 9167 ft | 224 kts | 75° |
| 2026-05-07 22:56 | 47.51479 | 8.07507 | 9013 ft | 219 kts | 66° |
| 2026-05-07 22:56 | 47.52120 | 8.09541 | 8829 ft | 215 kts | 65° |
| 2026-05-07 22:57 | 47.52745 | 8.11498 | 8600 ft | 210 kts | 65° |
| 2026-05-07 22:57 | 47.53357 | 8.13446 | 8295 ft | 208 kts | 66° |
| 2026-05-07 22:57 | 47.53956 | 8.15381 | 7984 ft | 207 kts | 66° |
| 2026-05-07 22:57 | 47.54543 | 8.17297 | 7698 ft | 203 kts | 66° |
| 2026-05-07 22:58 | 47.55114 | 8.19176 | 7422 ft | 200 kts | 66° |
| 2026-05-07 22:58 | 47.55676 | 8.21035 | 7144 ft | 196 kts | 67° |
| 2026-05-07 22:58 | 47.56232 | 8.22874 | 6871 ft | 193 kts | 67° |
| 2026-05-07 22:58 | 47.56770 | 8.24659 | 6599 ft | 190 kts | 67° |
| 2026-05-07 22:59 | 47.57300 | 8.26418 | 6318 ft | 187 kts | 67° |
| 2026-05-07 22:59 | 47.57825 | 8.28160 | 6034 ft | 185 kts | 67° |
| 2026-05-07 22:59 | 47.58347 | 8.29895 | 5739 ft | 184 kts | 67° |
| 2026-05-07 22:59 | 47.58868 | 8.31627 | 5449 ft | 182 kts | 66° |
| 2026-05-07 23:00 | 47.59373 | 8.33306 | 5163 ft | 181 kts | 67° |
| 2026-05-07 23:00 | 47.59880 | 8.35003 | 4876 ft | 179 kts | 69° |
| 2026-05-07 23:00 | 47.60009 | 8.36788 | 4549 ft | 176 kts | 107° |
| 2026-05-07 23:00 | 47.59394 | 8.38273 | 4338 ft | 165 kts | 130° |
| 2026-05-07 23:01 | 47.58602 | 8.39469 | 4144 ft | 163 kts | 135° |
| 2026-05-07 23:01 | 47.57765 | 8.40616 | 3941 ft | 163 kts | 136° |
| 2026-05-07 23:01 | 47.56928 | 8.41738 | 3733 ft | 163 kts | 136° |
| 2026-05-07 23:01 | 47.56094 | 8.42862 | 3521 ft | 162 kts | 135° |
| 2026-05-07 23:02 | 47.55265 | 8.43986 | 3304 ft | 162 kts | 135° |
| 2026-05-07 23:02 | 47.54440 | 8.45112 | 3085 ft | 162 kts | 135° |
| 2026-05-07 23:02 | 47.53616 | 8.46236 | 2865 ft | 163 kts | 135° |
| 2026-05-07 23:02 | 47.52776 | 8.47383 | 2634 ft | 164 kts | 136° |
| 2026-05-07 23:03 | 47.51934 | 8.48529 | 2412 ft | 165 kts | 136° |
| 2026-05-07 23:03 | 47.51101 | 8.49666 | 2195 ft | 165 kts | 136° |
| 2026-05-07 23:03 | 47.50254 | 8.50821 | 1978 ft | 166 kts | 136° |
| 2026-05-07 23:03 | 47.49396 | 8.51991 | 1756 ft | 167 kts | 137° |
| 2026-05-07 23:04 | 47.48546 | 8.53149 | 1538 ft | 167 kts | 137° |
| 2026-05-07 23:04 | 47.47717 | 8.54279 | 1398 ft | 154 kts | 136° |
| 2026-05-07 23:04 | 47.47034 | 8.55226 | 1388 ft | 112 kts | 137° |
| 2026-05-07 23:04 | 47.46584 | 8.55840 | 1394 ft | 68 kts | 137° |
| 2026-05-07 23:05 | 47.46304 | 8.56217 | 1402 ft | 31 kts | 136° |
| 2026-05-07 23:05 | 47.46162 | 8.56341 | 1405 ft | 17 kts | 178° |
| 2026-05-07 23:05 | 47.46088 | 8.56338 | 1406 ft | 8 kts | 182° |
| 2026-05-07 23:05 | 47.46077 | 8.56337 | 1406 ft | 0 kts | 186° |
| 2026-05-07 23:06 | 47.46076 | 8.56337 | 1406 ft | 2 kts | 187° |
| 2026-05-07 23:06 | 47.46051 | 8.56330 | 1406 ft | 3 kts | 194° |
| 2026-05-07 23:06 | 47.46027 | 8.56314 | 1406 ft | 3 kts | 212° |
| 2026-05-07 23:06 | 47.46007 | 8.56277 | 1406 ft | 8 kts | 245° |
| 2026-05-07 23:07 | 47.46003 | 8.56172 | 1404 ft | 10 kts | 271° |
| 2026-05-07 23:07 | 47.46012 | 8.56060 | 1402 ft | 11 kts | 289° |
| 2026-05-07 23:07 | 47.46068 | 8.55986 | 1401 ft | 11 kts | 347° |
| 2026-05-07 23:07 | 47.46142 | 8.55984 | 1401 ft | 8 kts | 2° |
| 2026-05-07 23:08 | 47.46199 | 8.55962 | 1400 ft | 10 kts | 315° |
| 2026-05-07 23:08 | 47.46225 | 8.55848 | 1397 ft | 13 kts | 278° |
| 2026-05-07 23:08 | 47.46236 | 8.55699 | 1394 ft | 14 kts | 275° |
| 2026-05-07 23:08 | 47.46247 | 8.55551 | 1392 ft | 14 kts | 277° |
| 2026-05-07 23:09 | 47.46254 | 8.55439 | 1391 ft | 6 kts | 270° |
| 2026-05-07 23:09 | 47.46235 | 8.55403 | 1391 ft | 4 kts | 186° |
| 2026-05-07 23:09 | 47.46211 | 8.55401 | 1390 ft | 3 kts | 183° |
| 2026-05-07 23:09 | 47.46189 | 8.55399 | 1390 ft | 3 kts | 184° |
| 2026-05-07 23:10 | 47.46187 | 8.55398 | 1390 ft | 0 kts | 184° |